Time;durP1;ratioP1;P1;durP2;ratioP2;P2;SDS_P1;SDS_P2;PMS_P1;PMS_P2;Temp;Humidity;BMP_temperature;BMP_pressure;BME280_temperature;BME280_humidity;BME280_pressure;Samples;Min_cycle;Max_cycle;Signal;HPM_P1;HPM_P2
2022/11/04 00:00:03;;;;;;;13.20;7.40;;;;;;;9.04;87.54;98711.39;100734;1337;24500;-38
2022/11/04 00:02:28;;;;;;;15.90;8.10;;;;;;;9.04;87.64;98709.38;100768;1341;24316;-36
2022/11/04 00:04:54;;;;;;;20.30;10.00;;;;;;;9.03;87.90;98703.60;100712;1340;23100;-36
2022/11/04 00:09:48;;;;;;;5.60;4.10;;;;;;;9.07;87.48;98704.14;100773;1328;24501;-36
2022/11/04 00:14:43;;;;;;;18.60;8.60;;;;;;;9.09;87.27;98694.54;100753;1341;22762;-33
2022/11/04 00:29:37;;;;;;;18.60;8.80;;;;;;;9.15;86.60;98693.06;100791;1333;22738;-37
2022/11/04 00:34:32;;;;;;;28.70;11.40;;;;;;;9.14;86.56;98693.45;100856;1342;24499;-33
2022/11/04 00:36:59;;;;;;;48.90;16.20;;;;;;;9.12;86.59;98690.83;100846;1336;24370;-33
2022/11/04 00:39:24;;;;;;;28.30;9.60;;;;;;;9.07;86.84;98688.56;100662;1341;23109;-36
2022/11/04 00:41:50;;;;;;;16.70;8.90;;;;;;;9.07;86.99;98688.82;100757;1341;24372;-36
2022/11/04 00:44:15;;;;;;;34.90;10.50;;;;;;;9.04;87.20;98689.58;100659;1337;24499;-36
2022/11/04 00:46:41;;;;;;;17.40;9.70;;;;;;;9.04;86.99;98681.89;100737;1341;23149;-34
2022/11/04 00:49:06;;;;;;;20.80;7.70;;;;;;;9.04;87.07;98686.14;100777;1341;24895;-35
2022/11/04 00:51:32;;;;;;;14.70;8.00;;;;;;;9.03;87.05;98680.39;100762;1341;23111;-35
2022/11/04 00:53:57;;;;;;;17.20;9.90;;;;;;;9.04;87.17;98679.73;100760;1330;25762;-31
2022/11/04 00:56:23;;;;;;;11.50;7.10;;;;;;;9.05;87.10;98675.88;100700;1331;22817;-32
2022/11/04 00:58:49;;;;;;;13.70;7.60;;;;;;;9.07;86.70;98671.41;100737;1331;22767;-35
2022/11/04 01:01:16;;;;;;;14.60;7.70;;;;;;;9.09;86.54;98669.03;100756;1336;22776;-35
2022/11/04 01:03:42;;;;;;;19.30;9.90;;;;;;;9.11;86.50;98661.09;100748;1338;23219;-35
2022/11/04 01:06:08;;;;;;;11.60;7.90;;;;;;;9.14;86.23;98661.34;100772;1338;22712;-32
2022/11/04 01:08:34;;;;;;;12.00;7.40;;;;;;;9.18;86.04;98656.52;100801;1339;22906;-32
2022/11/04 01:11:02;;;;;;;21.60;9.40;;;;;;;9.20;85.87;98653.83;100783;1339;24311;-33
2022/11/04 01:13:27;;;;;;;23.20;7.70;;;;;;;9.21;86.04;98656.55;100760;1338;25619;-35
2022/11/04 01:15:53;;;;;;;20.00;7.90;;;;;;;9.22;86.07;98652.68;100764;1339;22747;-36
2022/11/04 01:18:18;;;;;;;10.80;7.40;;;;;;;9.19;86.10;98647.15;100717;1341;22756;-32
2022/11/04 01:20:44;;;;;;;14.80;7.70;;;;;;;9.18;86.18;98649.27;100793;1333;24383;-36
2022/11/04 01:23:09;;;;;;;16.40;7.70;;;;;;;9.14;86.31;98647.31;100728;1341;23021;-32
2022/11/04 01:25:39;;;;;;;24.10;7.70;;;;;;;9.11;86.25;98640.85;100769;1341;22509;-36
2022/11/04 01:28:04;;;;;;;11.90;6.60;;;;;;;9.05;86.63;98636.94;100744;1340;24438;-36
2022/11/04 01:30:30;;;;;;;28.50;7.70;;;;;;;9.00;86.69;98634.04;100728;1340;24421;-36
2022/11/04 01:32:55;;;;;;;18.30;8.90;;;;;;;8.93;86.66;98626.99;100757;1340;22669;-33
2022/11/04 01:35:21;;;;;;;19.90;8.90;;;;;;;8.86;86.91;98618.86;100780;1341;24800;-36
2022/11/04 01:37:46;;;;;;;13.80;6.20;;;;;;;8.80;87.01;98614.70;100776;1340;22873;-36
2022/11/04 01:40:12;;;;;;;16.90;6.70;;;;;;;8.75;87.23;98615.98;100759;1341;24357;-36
2022/11/04 01:42:37;;;;;;;17.10;7.60;;;;;;;8.71;87.50;98617.16;100663;1333;25352;-34
2022/11/04 01:45:03;;;;;;;14.70;7.10;;;;;;;8.67;87.91;98619.34;100743;1338;22509;-33
2022/11/04 01:47:35;;;;;;;14.50;7.40;;;;;;;8.62;88.40;98616.90;100757;1341;24600;-37
2022/11/04 01:50:04;;;;;;;14.00;8.30;;;;;;;8.58;88.23;98611.17;100765;1341;25476;-35
2022/11/04 01:52:34;;;;;;;18.70;9.40;;;;;;;8.57;88.78;98604.25;100706;1341;25428;-32
2022/11/04 01:55:02;;;;;;;12.10;7.70;;;;;;;8.58;88.54;98597.13;100748;1316;22767;-35
2022/11/04 01:57:33;;;;;;;14.40;8.70;;;;;;;8.59;88.53;98592.34;100801;1341;24423;-35
2022/11/04 02:00:00;;;;;;;12.00;7.10;;;;;;;8.60;88.59;98589.15;100799;1332;24391;-37
2022/11/04 02:02:26;;;;;;;20.10;8.90;;;;;;;8.61;88.74;98585.89;100537;1341;22511;-37
2022/11/04 02:04:51;;;;;;;12.70;6.80;;;;;;;8.62;88.60;98586.47;100696;1341;24383;-36
2022/11/04 02:07:17;;;;;;;17.20;8.80;;;;;;;8.66;88.76;98589.85;100618;1322;22507;-37
2022/11/04 02:09:42;;;;;;;14.10;7.20;;;;;;;8.68;88.80;98589.02;100793;1340;25055;-34
2022/11/04 02:14:37;;;;;;;16.60;7.70;;;;;;;8.75;88.56;98583.67;100744;1330;24486;-32
2022/11/04 02:17:10;;;;;;;12.20;7.70;;;;;;;8.78;88.58;98581.45;100773;1330;24362;-36
2022/11/04 02:19:36;;;;;;;13.40;7.90;;;;;;;8.80;88.33;98576.14;100812;1341;25252;-33
2022/11/04 02:22:06;;;;;;;18.20;7.80;;;;;;;8.83;88.33;98571.70;100781;1330;23116;-33
2022/11/04 02:24:40;;;;;;;10.30;5.60;;;;;;;8.84;88.57;98569.61;100794;1340;22689;-33
2022/11/04 02:27:11;;;;;;;12.20;6.80;;;;;;;8.87;88.37;98564.37;100706;1339;23034;-33
2022/11/04 02:29:53;;;;;;;7.80;5.90;;;;;;;8.88;88.47;98559.91;100804;1339;24296;-33
2022/11/04 02:32:24;;;;;;;12.60;6.80;;;;;;;8.87;88.56;98552.58;100808;1340;24383;-36
2022/11/04 02:34:57;;;;;;;9.00;5.50;;;;;;;8.86;88.56;98551.77;100778;1340;26939;-33
2022/11/04 02:37:29;;;;;;;11.00;6.20;;;;;;;8.91;88.27;98543.89;100869;1330;25292;-33
2022/11/04 02:40:04;;;;;;;11.20;6.40;;;;;;;8.92;88.34;98545.12;100584;1332;22513;-37
2022/11/04 02:42:32;;;;;;;10.20;6.40;;;;;;;8.94;88.02;98545.01;100873;1341;22873;-38
2022/11/04 02:45:03;;;;;;;9.50;5.40;;;;;;;8.97;88.09;98543.98;100788;1341;24973;-34
2022/11/04 02:47:29;;;;;;;15.50;7.30;;;;;;;8.99;88.09;98539.84;100793;1341;23103;-38
2022/11/04 02:50:01;;;;;;;14.60;8.60;;;;;;;9.01;87.72;98541.00;100820;1341;23259;-32
2022/11/04 02:52:33;;;;;;;9.40;5.40;;;;;;;9.05;87.48;98539.15;100786;1341;22611;-35
2022/11/04 02:55:01;;;;;;;10.90;5.50;;;;;;;9.08;87.37;98538.52;100717;1338;23113;-33
2022/11/04 02:57:29;;;;;;;11.20;6.40;;;;;;;9.12;87.33;98536.86;100817;1341;22889;-35
2022/11/04 02:59:54;;;;;;;10.80;5.70;;;;;;;9.17;87.49;98539.96;100780;1340;22975;-32
2022/11/04 03:02:25;;;;;;;13.00;6.60;;;;;;;9.21;87.33;98540.44;100835;1341;22888;-32
2022/11/04 03:04:51;;;;;;;9.50;6.20;;;;;;;9.23;87.21;98538.05;100734;1340;23090;-32
2022/11/04 03:07:21;;;;;;;9.30;5.80;;;;;;;9.25;86.94;98533.96;100684;1326;23253;-32
2022/11/04 03:09:50;;;;;;;10.00;5.80;;;;;;;9.30;86.80;98532.14;100752;1340;24478;-32
2022/11/04 03:12:17;;;;;;;9.60;6.50;;;;;;;9.33;86.66;98533.04;100707;1340;22904;-32
2022/11/04 03:14:47;;;;;;;8.90;5.40;;;;;;;9.36;86.72;98529.27;100842;1339;23229;-37
2022/11/04 03:17:16;;;;;;;14.20;5.80;;;;;;;9.38;86.54;98530.10;100708;1340;22950;-31
2022/11/04 03:19:46;;;;;;;9.50;6.50;;;;;;;9.40;86.29;98526.21;100749;1340;22712;-34
2022/11/04 03:22:15;;;;;;;10.50;5.40;;;;;;;9.43;86.35;98533.71;100774;1339;23211;-32
2022/11/04 03:24:41;;;;;;;21.70;8.30;;;;;;;9.46;86.44;98531.48;100774;1341;22529;-32
2022/11/04 03:27:14;;;;;;;18.30;6.80;;;;;;;9.49;86.48;98531.31;100701;1340;23235;-34
2022/11/04 03:29:49;;;;;;;24.60;7.30;;;;;;;9.51;86.37;98531.72;100766;1337;22786;-32
2022/11/04 03:32:21;;;;;;;9.30;5.90;;;;;;;9.54;86.67;98534.46;100790;1331;22735;-35
2022/11/04 03:34:46;;;;;;;14.10;6.50;;;;;;;9.58;86.46;98534.90;100824;1340;22623;-37
2022/11/04 03:37:12;;;;;;;12.30;7.10;;;;;;;9.60;86.27;98531.60;100358;1340;577012;-36
2022/11/04 03:39:38;;;;;;;13.50;7.40;;;;;;;9.62;85.96;98525.13;100762;1341;22759;-34
2022/11/04 03:42:18;;;;;;;10.50;7.00;;;;;;;9.63;85.71;98528.67;100760;1330;22568;-36
2022/11/04 03:44:47;;;;;;;9.00;5.80;;;;;;;9.64;85.59;98530.97;100434;1342;23236;-35
2022/11/04 03:47:13;;;;;;;8.60;5.90;;;;;;;9.67;85.47;98530.67;100766;1340;24457;-35
2022/11/04 03:49:38;;;;;;;16.70;7.00;;;;;;;9.69;85.86;98531.45;100742;1340;23116;-37
2022/11/04 03:52:04;;;;;;;15.30;6.30;;;;;;;9.70;85.48;98524.59;100732;1341;22754;-36
2022/11/04 03:54:34;;;;;;;15.40;8.30;;;;;;;9.71;85.50;98520.80;100721;1340;24347;-35
2022/11/04 03:57:07;;;;;;;13.40;7.00;;;;;;;9.71;84.98;98521.01;100740;1340;24299;-38
2022/11/04 03:59:37;;;;;;;14.10;6.10;;;;;;;9.70;84.77;98517.55;100871;1341;22628;-32
2022/11/04 04:02:07;;;;;;;13.10;6.20;;;;;;;9.68;84.86;98516.51;100770;1341;22492;-33
2022/11/04 04:04:33;;;;;;;14.60;6.70;;;;;;;9.66;84.76;98513.27;100852;1341;23568;-37
2022/11/04 04:07:02;;;;;;;10.80;7.10;;;;;;;9.64;84.89;98512.30;100732;1331;25601;-32
2022/11/04 04:09:35;;;;;;;17.60;8.50;;;;;;;9.63;85.06;98507.96;100718;1341;24311;-37
2022/11/04 04:12:05;;;;;;;18.60;9.50;;;;;;;9.59;84.86;98502.20;100805;1322;22891;-34
2022/11/04 04:17:04;;;;;;;12.90;6.70;;;;;;;9.53;84.95;98498.05;100733;1339;24286;-37
2022/11/04 04:19:30;;;;;;;15.00;8.40;;;;;;;9.50;85.04;98489.49;100833;1341;23259;-34
2022/11/04 04:21:59;;;;;;;9.30;6.30;;;;;;;9.48;84.80;98489.66;100611;1341;22889;-33
2022/11/04 04:29:25;;;;;;;19.10;7.70;;;;;;;9.45;85.20;98482.42;100732;1325;22750;-34
2022/11/04 04:31:51;;;;;;;14.90;6.40;;;;;;;9.44;85.27;98478.79;100664;1333;22504;-37
2022/11/04 04:34:22;;;;;;;9.70;5.70;;;;;;;9.42;85.27;98479.42;100605;1341;24402;-32
2022/11/04 04:36:52;;;;;;;10.60;7.10;;;;;;;9.39;85.34;98475.99;100812;1340;24421;-33
2022/11/04 04:46:50;;;;;;;19.00;7.20;;;;;;;9.35;85.85;98475.77;100779;1339;25549;-33
2022/11/04 04:49:16;;;;;;;14.50;5.70;;;;;;;9.35;86.22;98474.45;100781;1338;25636;-33
2022/11/04 04:51:44;;;;;;;13.20;7.60;;;;;;;9.34;86.22;98474.13;100688;1339;22981;-37
2022/11/04 04:54:09;;;;;;;8.80;5.90;;;;;;;9.36;85.98;98472.51;100735;1323;22520;-33
2022/11/04 04:56:35;;;;;;;11.50;6.50;;;;;;;9.39;85.67;98475.84;100804;1339;23237;-32
2022/11/04 04:59:00;;;;;;;9.90;6.60;;;;;;;9.43;85.10;98472.45;100672;1333;23206;-32
2022/11/04 05:01:26;;;;;;;14.20;8.30;;;;;;;9.47;84.83;98466.58;100762;1333;25876;-32
2022/11/04 05:03:52;;;;;;;8.10;3.10;;;;;;;9.51;84.64;98468.70;100677;1323;24299;-32
2022/11/04 05:06:17;;;;;;;14.10;6.60;;;;;;;9.55;83.72;98466.02;100710;1333;24524;-36
2022/11/04 05:08:43;;;;;;;11.30;6.20;;;;;;;9.59;83.52;98459.80;100796;1339;23110;-37
2022/11/04 05:11:10;;;;;;;13.70;6.40;;;;;;;9.63;83.18;98461.27;100607;1332;24435;-32
2022/11/04 05:13:35;;;;;;;8.80;5.60;;;;;;;9.66;82.90;98459.48;100687;1340;24502;-35
2022/11/04 05:16:03;;;;;;;10.30;4.90;;;;;;;9.67;82.40;98457.66;100768;1330;23106;-41
2022/11/04 05:18:28;;;;;;;9.00;4.80;;;;;;;9.70;82.04;98455.08;100820;1339;24588;-37
2022/11/04 05:20:54;;;;;;;14.30;6.30;;;;;;;9.75;81.73;98452.97;100750;1337;23241;-37
2022/11/04 05:23:19;;;;;;;13.70;5.60;;;;;;;9.81;81.63;98452.40;100736;1338;25358;-37
2022/11/04 05:25:45;;;;;;;16.00;5.20;;;;;;;9.86;81.13;98451.28;100795;1338;25396;-35
2022/11/04 05:28:11;;;;;;;8.70;5.00;;;;;;;9.87;80.72;98453.80;100763;1338;24820;-36
2022/11/04 05:30:36;;;;;;;10.70;4.60;;;;;;;9.88;80.77;98454.54;100797;1331;22763;-37
2022/11/04 05:33:02;;;;;;;17.60;5.60;;;;;;;9.90;80.49;98454.77;100655;1340;23223;-32
2022/11/04 05:35:28;;;;;;;9.60;5.90;;;;;;;9.91;80.29;98452.16;100754;1331;22509;-38
2022/11/04 05:37:55;;;;;;;12.50;6.10;;;;;;;9.92;80.55;98450.93;100635;1340;22888;-35
2022/11/04 05:40:20;;;;;;;14.20;7.00;;;;;;;9.93;80.46;98452.98;100609;1333;22733;-39
2022/11/04 05:42:46;;;;;;;7.70;4.50;;;;;;;9.94;80.36;98448.89;100738;1333;22755;-36
2022/11/04 05:45:11;;;;;;;18.20;5.70;;;;;;;9.95;80.19;98456.81;100732;1339;22889;-33
2022/11/04 05:47:37;;;;;;;18.00;6.40;;;;;;;9.94;80.21;98454.59;100727;1339;22890;-35
2022/11/04 05:50:03;;;;;;;9.60;4.40;;;;;;;9.96;80.05;98454.45;100753;1340;22601;-33
2022/11/04 05:52:29;;;;;;;7.50;5.50;;;;;;;9.96;79.67;98453.26;100523;1341;22889;-33
2022/11/04 05:54:54;;;;;;;14.50;6.00;;;;;;;9.95;79.57;98453.75;100651;1339;23215;-33
2022/11/04 05:57:20;;;;;;;14.40;6.00;;;;;;;9.95;79.37;98455.37;100764;1340;23215;-34
2022/11/04 05:59:45;;;;;;;14.30;5.40;;;;;;;9.98;79.32;98456.26;100723;1326;22491;-34
2022/11/04 06:02:11;;;;;;;8.80;5.20;;;;;;;9.99;79.24;98454.59;100565;1333;23103;-34
2022/11/04 06:04:37;;;;;;;9.20;5.20;;;;;;;10.01;79.40;98453.84;100725;1340;24344;-34
2022/11/04 06:07:02;;;;;;;12.10;6.70;;;;;;;10.01;79.36;98452.15;100785;1340;24417;-36
2022/11/04 06:11:59;;;;;;;9.20;6.20;;;;;;;9.96;79.68;98450.86;100822;1324;22547;-37
2022/11/04 06:14:24;;;;;;;23.40;4.70;;;;;;;9.94;79.54;98447.02;100724;1330;23022;-37
2022/11/04 06:16:50;;;;;;;12.20;7.80;;;;;;;9.96;79.59;98445.59;100724;1340;23347;-33
2022/11/04 06:19:16;;;;;;;5.80;3.90;;;;;;;9.96;79.38;98445.38;100661;1341;22513;-37
2022/11/04 06:21:41;;;;;;;11.70;5.10;;;;;;;9.96;79.14;98447.61;100762;1339;22887;-34
2022/11/04 06:24:07;;;;;;;8.90;5.70;;;;;;;9.97;79.37;98449.24;100689;1340;22972;-37
2022/11/04 06:26:33;;;;;;;9.90;5.00;;;;;;;9.97;79.02;98443.95;100721;1340;22570;-36
2022/11/04 06:28:58;;;;;;;7.50;4.90;;;;;;;10.01;79.32;98448.65;100776;1340;22600;-33
2022/11/04 06:31:24;;;;;;;11.70;4.80;;;;;;;10.04;79.72;98449.00;100713;1333;23104;-35
2022/11/04 06:33:50;;;;;;;17.30;4.90;;;;;;;10.07;80.07;98445.74;100763;1340;23243;-36
2022/11/04 06:36:15;;;;;;;15.50;5.30;;;;;;;10.14;80.31;98452.70;100806;1341;23090;-37
2022/11/04 06:38:41;;;;;;;8.10;4.10;;;;;;;10.18;80.52;98449.31;100750;1330;23158;-37
2022/11/04 06:41:09;;;;;;;7.60;5.30;;;;;;;10.18;81.10;98447.77;100815;1341;22738;-40
2022/11/04 06:43:35;;;;;;;10.50;5.80;;;;;;;10.22;81.22;98449.33;100824;1330;23106;-33
2022/11/04 06:46:01;;;;;;;10.40;6.30;;;;;;;10.23;80.74;98451.10;100674;1339;23450;-33
2022/11/04 06:48:29;;;;;;;16.70;7.40;;;;;;;10.24;79.71;98455.14;100771;1340;22761;-32
2022/11/04 06:50:57;;;;;;;11.20;7.10;;;;;;;10.25;79.46;98455.63;100853;1341;23017;-37
2022/11/04 06:53:22;;;;;;;31.60;12.80;;;;;;;10.23;78.85;98451.13;100800;1330;23129;-36
2022/11/04 06:55:48;;;;;;;17.80;9.30;;;;;;;10.23;78.84;98449.98;100774;1341;23918;-36
2022/11/04 06:58:14;;;;;;;13.10;8.10;;;;;;;10.23;78.50;98450.11;100850;1341;22873;-34
2022/11/04 07:00:42;;;;;;;14.50;9.30;;;;;;;10.23;78.45;98450.14;100923;1323;22731;-33
2022/11/04 07:03:08;;;;;;;18.90;7.00;;;;;;;10.22;78.49;98455.80;100772;1338;22869;-37
2022/11/04 07:05:34;;;;;;;11.20;6.30;;;;;;;10.19;78.58;98451.09;100768;1338;23101;-36
2022/11/04 07:08:00;;;;;;;20.10;7.10;;;;;;;10.16;78.69;98450.19;100820;1335;22889;-33
2022/11/04 07:10:25;;;;;;;17.70;9.30;;;;;;;10.16;78.74;98450.48;100768;1333;24407;-37
2022/11/04 07:12:53;;;;;;;14.90;7.50;;;;;;;10.16;78.88;98444.25;100813;1324;23517;-35
2022/11/04 07:15:19;;;;;;;17.50;7.60;;;;;;;10.15;78.68;98440.13;100690;1340;22777;-36
2022/11/04 07:17:45;;;;;;;14.10;6.90;;;;;;;10.17;78.86;98443.00;100711;1330;23122;-37
2022/11/04 07:20:12;;;;;;;13.00;7.30;;;;;;;10.19;78.91;98445.55;100753;1340;22873;-37
2022/11/04 07:22:38;;;;;;;14.20;7.40;;;;;;;10.21;78.89;98440.04;100728;1330;22772;-34
2022/11/04 07:25:05;;;;;;;10.00;5.80;;;;;;;10.24;78.75;98434.40;100777;1334;23092;-37
2022/11/04 07:27:30;;;;;;;8.40;4.80;;;;;;;10.27;78.30;98433.30;100782;1341;23157;-33
2022/11/04 07:29:56;;;;;;;21.00;7.60;;;;;;;10.32;77.73;98430.99;100702;1338;23075;-37
2022/11/04 07:32:21;;;;;;;13.40;6.90;;;;;;;10.38;77.76;98426.02;100841;1341;24290;-33
2022/11/04 07:34:47;;;;;;;11.10;7.00;;;;;;;10.41;77.36;98424.15;100760;1341;25356;-37
2022/11/04 07:37:12;;;;;;;16.00;7.20;;;;;;;10.49;77.62;98421.02;100754;1341;23912;-33
2022/11/04 07:39:38;;;;;;;12.50;7.40;;;;;;;10.55;77.19;98420.96;100743;1341;22536;-35
2022/11/04 07:42:07;;;;;;;20.70;7.80;;;;;;;10.59;77.04;98420.14;100711;1339;22892;-37
2022/11/04 07:44:32;;;;;;;8.40;4.70;;;;;;;10.64;77.28;98420.64;100831;1340;22512;-34
2022/11/04 07:46:58;;;;;;;11.30;5.90;;;;;;;10.68;77.03;98417.83;100707;1340;22782;-37
2022/11/04 07:49:24;;;;;;;14.10;5.80;;;;;;;10.70;77.04;98420.33;100753;1340;23259;-37
2022/11/04 07:51:50;;;;;;;7.50;5.00;;;;;;;10.71;76.89;98417.30;100778;1340;24301;-37
2022/11/04 07:54:16;;;;;;;9.60;4.80;;;;;;;10.73;77.04;98408.56;100694;1341;24378;-37
2022/11/04 07:56:42;;;;;;;12.90;7.30;;;;;;;10.76;77.59;98410.20;100676;1340;24842;-34
2022/11/04 07:59:08;;;;;;;9.60;5.10;;;;;;;10.82;77.26;98412.54;100790;1340;22751;-34
2022/11/04 08:01:33;;;;;;;9.40;5.50;;;;;;;10.84;77.11;98411.73;100898;1326;23117;-37
2022/11/04 08:03:59;;;;;;;16.60;6.30;;;;;;;10.89;76.98;98408.25;100773;1326;23248;-37
2022/11/04 08:06:25;;;;;;;13.60;7.30;;;;;;;10.95;77.42;98414.92;100756;1340;23225;-37
2022/11/04 08:08:52;;;;;;;9.00;5.40;;;;;;;11.01;77.77;98411.42;100721;1341;23240;-37
2022/11/04 08:11:22;;;;;;;10.60;6.40;;;;;;;11.08;77.36;98408.29;100793;1339;22752;-34
2022/11/04 08:13:49;;;;;;;9.00;5.00;;;;;;;11.12;76.81;98407.98;100728;1339;22512;-33
2022/11/04 08:16:17;;;;;;;8.90;5.50;;;;;;;11.11;76.52;98406.48;100704;1330;24497;-33
2022/11/04 08:18:43;;;;;;;7.80;7.00;;;;;;;11.16;76.97;98408.37;100780;1333;22749;-36
2022/11/04 08:21:09;;;;;;;13.50;5.70;;;;;;;11.20;76.80;98407.11;100681;1330;24484;-33
2022/11/04 08:23:35;;;;;;;9.40;6.40;;;;;;;11.23;76.61;98400.92;100774;1331;23096;-33
2022/11/04 08:26:01;;;;;;;11.80;5.30;;;;;;;11.22;76.26;98400.11;100729;1340;22753;-33
2022/11/04 08:28:28;;;;;;;13.30;5.70;;;;;;;11.29;76.80;98402.25;100642;1339;24495;-34
2022/11/04 08:30:56;;;;;;;9.30;4.70;;;;;;;11.31;76.62;98403.27;100783;1341;22749;-33
2022/11/04 08:33:23;;;;;;;9.20;5.00;;;;;;;11.38;76.59;98396.16;100844;1340;23119;-37
2022/11/04 08:35:49;;;;;;;14.10;5.30;;;;;;;11.45;76.41;98395.93;100812;1340;23121;-36
2022/11/04 08:38:15;;;;;;;9.50;6.10;;;;;;;11.50;76.37;98398.75;100739;1330;23199;-32
2022/11/04 08:40:41;;;;;;;6.50;5.00;;;;;;;11.56;76.19;98399.93;100688;1339;24758;-35
2022/11/04 08:43:08;;;;;;;7.40;5.00;;;;;;;11.62;76.55;98401.29;100742;1331;24271;-36
2022/11/04 08:45:39;;;;;;;7.20;4.70;;;;;;;11.71;76.31;98398.02;100696;1340;25571;-33
2022/11/04 08:48:04;;;;;;;9.00;5.20;;;;;;;11.86;76.12;98402.73;100771;1341;22905;-33
2022/11/04 08:50:30;;;;;;;12.10;5.70;;;;;;;11.98;75.73;98400.03;100802;1340;23114;-37
2022/11/04 08:52:57;;;;;;;6.90;5.00;;;;;;;12.11;75.25;98398.49;100763;1340;22888;-37
2022/11/04 08:55:22;;;;;;;8.10;5.30;;;;;;;12.23;74.15;98395.17;100767;1336;24383;-33
2022/11/04 08:57:49;;;;;;;17.30;6.00;;;;;;;12.27;73.83;98391.63;100789;1340;22745;-36
2022/11/04 09:00:15;;;;;;;7.40;5.10;;;;;;;12.31;73.71;98390.90;100726;1330;22746;-38
2022/11/04 09:02:41;;;;;;;6.60;3.90;;;;;;;12.38;73.61;98386.22;100794;1330;24982;-33
2022/11/04 09:05:07;;;;;;;9.20;4.90;;;;;;;12.42;73.64;98390.58;100790;1341;24485;-32
2022/11/04 09:07:34;;;;;;;6.50;4.20;;;;;;;12.45;73.56;98387.27;100791;1340;22605;-32
2022/11/04 09:10:01;;;;;;;7.20;4.60;;;;;;;12.52;73.18;98380.84;100765;1338;22572;-33
2022/11/04 09:12:27;;;;;;;10.90;6.80;;;;;;;12.51;72.66;98385.79;100754;1338;23115;-33
2022/11/04 09:14:54;;;;;;;23.00;8.10;;;;;;;12.51;72.44;98387.40;100727;1333;22853;-35
2022/11/04 09:17:20;;;;;;;12.00;4.40;;;;;;;12.48;72.45;98382.04;100712;1333;22715;-38
2022/11/04 09:19:48;;;;;;;13.30;5.50;;;;;;;12.43;72.62;98382.20;100797;1338;24290;-37
2022/11/04 09:22:14;;;;;;;10.30;4.70;;;;;;;12.43;72.68;98377.40;100766;1331;23037;-35
2022/11/04 09:24:39;;;;;;;9.40;6.20;;;;;;;12.42;72.40;98381.09;100681;1340;22861;-37
2022/11/04 09:27:05;;;;;;;11.50;4.40;;;;;;;12.38;72.17;98376.12;100801;1331;22490;-37
2022/11/04 09:29:32;;;;;;;12.50;5.70;;;;;;;12.38;71.62;98376.36;100699;1339;23214;-34
2022/11/04 09:31:59;;;;;;;16.10;6.50;;;;;;;12.24;72.43;98372.52;100773;1339;22520;-37
2022/11/04 09:34:24;;;;;;;13.70;6.80;;;;;;;12.24;73.02;98371.47;100683;1341;22779;-37
2022/11/04 09:36:54;;;;;;;8.50;4.60;;;;;;;12.25;73.49;98367.55;100776;1338;23099;-38
2022/11/04 09:39:19;;;;;;;12.40;5.40;;;;;;;12.31;73.70;98365.55;100789;1330;24396;-34
2022/11/04 09:41:48;;;;;;;9.40;5.30;;;;;;;12.34;73.21;98368.63;100687;1339;23230;-35
2022/11/04 09:44:18;;;;;;;13.80;7.10;;;;;;;12.31;73.58;98372.59;100789;1339;23438;-37
2022/11/04 09:46:44;;;;;;;10.80;5.20;;;;;;;12.31;73.04;98366.95;100695;1332;24305;-34
2022/11/04 09:49:11;;;;;;;12.30;7.00;;;;;;;12.27;73.61;98371.25;100758;1330;22873;-36
2022/11/04 09:51:37;;;;;;;7.40;4.80;;;;;;;12.23;74.01;98367.67;100802;1330;22875;-38
2022/11/04 09:54:09;;;;;;;15.00;6.00;;;;;;;12.23;74.32;98368.15;100754;1330;24383;-34
2022/11/04 09:56:37;;;;;;;11.90;6.10;;;;;;;12.27;74.30;98369.59;100724;1338;22508;-38
2022/11/04 09:59:03;;;;;;;9.90;6.00;;;;;;;12.26;74.39;98370.85;100763;1331;23230;-38
2022/11/04 10:01:35;;;;;;;13.70;6.80;;;;;;;12.28;74.56;98371.18;100782;1341;24198;-35
2022/11/04 10:04:06;;;;;;;13.40;6.70;;;;;;;12.30;74.61;98366.98;100754;1338;24349;-38
2022/11/04 10:06:34;;;;;;;14.50;7.60;;;;;;;12.26;74.44;98367.58;100782;1340;22500;-34
2022/11/04 10:09:05;;;;;;;18.70;6.20;;;;;;;12.24;74.99;98368.43;100751;1323;22747;-37
2022/11/04 10:11:38;;;;;;;8.60;5.60;;;;;;;12.28;74.79;98369.79;100728;1339;24323;-37
2022/11/04 10:14:07;;;;;;;;;;;;;;;12.25;75.12;98368.42;100738;1339;25457;-35
2022/11/04 10:16:34;;;;;;;9.70;6.30;;;;;;;12.33;74.67;98371.46;100800;1329;23090;-38
2022/11/04 10:19:08;;;;;;;14.20;7.50;;;;;;;12.32;75.27;98370.38;100815;1338;22747;-34
2022/11/04 10:21:34;;;;;;;14.70;5.30;;;;;;;12.40;74.64;98370.38;100748;1316;22492;-38
2022/11/04 10:24:12;;;;;;;13.90;6.80;;;;;;;12.28;75.85;98368.05;100801;1340;22988;-37
2022/11/04 10:26:42;;;;;;;6.80;4.40;;;;;;;12.41;75.59;98367.20;100839;1340;23206;-36
2022/11/04 10:29:14;;;;;;;12.30;6.90;;;;;;;12.42;75.70;98368.00;100869;1340;22500;-36
2022/11/04 10:31:39;;;;;;;12.20;5.00;;;;;;;12.44;75.91;98361.93;100901;1341;22495;-34
2022/11/04 10:34:07;;;;;;;12.40;6.30;;;;;;;12.46;76.38;98358.63;100671;1323;25250;-34
2022/11/04 10:36:34;;;;;;;14.50;6.90;;;;;;;12.54;76.33;98355.80;100753;1339;22768;-36
2022/11/04 10:39:02;;;;;;;11.00;6.90;;;;;;;12.63;76.79;98355.28;100776;1340;23101;-32
2022/11/04 10:41:33;;;;;;;13.70;8.00;;;;;;;12.76;76.06;98350.52;100683;1336;24282;-33
2022/11/04 10:44:01;;;;;;;12.60;7.20;;;;;;;12.77;76.50;98349.30;100808;1330;22905;-38
2022/11/04 10:46:36;;;;;;;9.20;5.40;;;;;;;12.87;76.86;98344.59;100790;1340;23077;-37
2022/11/04 10:49:09;;;;;;;13.70;6.50;;;;;;;13.00;76.86;98338.25;100777;1341;24242;-33
2022/11/04 10:51:34;;;;;;;18.70;8.30;;;;;;;13.14;76.96;98337.45;100777;1341;24463;-35
2022/11/04 10:54:00;;;;;;;15.80;7.30;;;;;;;13.21;76.62;98345.08;100693;1340;22764;-35
2022/11/04 10:56:30;;;;;;;9.60;7.50;;;;;;;13.25;76.23;98344.04;100748;1340;23090;-36
2022/11/04 10:58:55;;;;;;;12.10;6.00;;;;;;;13.29;76.29;98338.25;100775;1339;25350;-33
2022/11/04 11:01:23;;;;;;;20.40;10.00;;;;;;;13.32;76.39;98335.58;100676;1341;24842;-34
2022/11/04 11:03:48;;;;;;;20.50;11.70;;;;;;;13.29;76.50;98330.13;100684;1340;22507;-36
2022/11/04 11:06:22;;;;;;;25.40;10.80;;;;;;;13.32;76.74;98328.45;100487;1336;23763;-33
2022/11/04 11:08:48;;;;;;;14.60;9.30;;;;;;;13.40;76.57;98326.29;100767;1339;22766;-41
2022/11/04 11:11:14;;;;;;;14.00;7.90;;;;;;;13.41;76.54;98323.81;100768;1339;23128;-37
2022/11/04 11:13:42;;;;;;;18.10;10.70;;;;;;;13.39;76.98;98325.55;100757;1341;24917;-37
2022/11/04 11:16:12;;;;;;;19.60;8.20;;;;;;;13.47;76.45;98323.39;100676;1334;22738;-37
2022/11/04 11:18:38;;;;;;;22.90;12.70;;;;;;;13.39;77.19;98324.92;100727;1331;22759;-37
2022/11/04 11:21:04;;;;;;;16.30;9.20;;;;;;;13.43;77.10;98323.14;100752;1341;22932;-37
2022/11/04 11:23:35;;;;;;;14.60;9.20;;;;;;;13.48;77.56;98325.56;100771;1331;24313;-35
2022/11/04 11:26:02;;;;;;;13.60;7.20;;;;;;;13.69;76.84;98325.42;100880;1339;23888;-33
2022/11/04 11:28:28;;;;;;;24.40;10.20;;;;;;;13.74;76.91;98326.80;100802;1337;23090;-33
2022/11/04 11:30:56;;;;;;;14.60;8.90;;;;;;;13.73;76.28;98325.95;100690;1340;25941;-37
2022/11/04 11:33:26;;;;;;;22.00;9.70;;;;;;;13.73;77.25;98326.95;100750;1330;22877;-37
2022/11/04 11:35:59;;;;;;;15.00;9.90;;;;;;;13.81;77.36;98329.16;100727;1330;22735;-34
2022/11/04 11:38:27;;;;;;;19.60;11.20;;;;;;;13.83;76.90;98326.34;100468;1330;473313;-37
2022/11/04 11:41:02;;;;;;;30.90;11.20;;;;;;;13.77;76.97;98323.86;100777;1340;22748;-35
2022/11/04 11:43:29;;;;;;;17.60;10.50;;;;;;;13.76;76.45;98320.14;100660;1339;22511;-37
2022/11/04 11:45:56;;;;;;;28.10;12.30;;;;;;;13.59;77.51;98320.95;100787;1332;23090;-34
2022/11/04 11:48:28;;;;;;;25.10;10.00;;;;;;;13.56;78.04;98315.26;100751;1340;22505;-34
2022/11/04 11:50:57;;;;;;;18.90;11.00;;;;;;;13.59;78.03;98316.77;100731;1339;25304;-34
2022/11/04 11:53:24;;;;;;;24.60;11.80;;;;;;;13.55;78.09;98316.73;100699;1340;22967;-34
2022/11/04 11:55:57;;;;;;;11.20;8.70;;;;;;;13.52;78.62;98309.23;100762;1338;24457;-36
2022/11/04 11:58:28;;;;;;;18.40;8.30;;;;;;;13.57;79.05;98304.20;100855;1324;22550;-33
2022/11/04 12:01:00;;;;;;;19.50;10.40;;;;;;;13.72;78.09;98300.63;100821;1341;22737;-33